createdAt,value
2018-02-14T00:01:57.693Z,75.10
2018-02-14T00:04:25.934Z,73.90
2018-02-14T00:06:53.403Z,73.70
2018-02-14T00:09:20.874Z,73.00
2018-02-14T00:11:48.345Z,72.70
2018-02-14T00:14:15.805Z,72.00
2018-02-14T00:16:44.041Z,72.30
2018-02-14T00:19:11.499Z,72.30
2018-02-14T00:21:38.982Z,71.70
2018-02-14T00:24:06.448Z,71.00
2018-02-14T00:26:34.681Z,70.80
2018-02-14T00:29:02.156Z,70.70
2018-02-14T00:31:29.838Z,70.60
2018-02-14T00:33:58.081Z,71.00
2018-02-14T00:36:25.538Z,70.50
2018-02-14T00:38:53.006Z,70.70
2018-02-14T00:41:20.466Z,70.90
2018-02-14T00:43:47.950Z,70.90
2018-02-14T00:46:15.404Z,70.80
2018-02-14T00:48:43.646Z,70.80
2018-02-14T00:51:11.113Z,70.80
2018-02-14T00:53:38.578Z,70.80
2018-02-14T00:56:06.052Z,70.40
2018-02-14T00:58:34.282Z,70.50
2018-02-14T01:01:01.762Z,70.50
2018-02-14T01:03:29.273Z,70.30
2018-02-14T01:05:56.742Z,70.10
2018-02-14T01:08:24.212Z,69.90
2018-02-14T01:10:51.690Z,70.20
2018-02-14T01:13:19.154Z,70.00
2018-02-14T01:15:46.629Z,69.80
2018-02-14T01:18:14.867Z,69.70
2018-02-14T01:20:44.185Z,69.60
2018-02-14T01:23:11.686Z,69.50
2018-02-14T01:25:39.157Z,69.50
2018-02-14T01:28:06.626Z,69.50
2018-02-14T01:30:34.091Z,69.60
2018-02-14T01:33:01.552Z,69.90
2018-02-14T01:35:29.026Z,69.80
2018-02-14T01:37:56.498Z,70.40
2018-02-14T01:40:24.729Z,70.60
2018-02-14T01:42:52.210Z,70.50
2018-02-14T01:45:19.675Z,70.40
2018-02-14T01:47:47.145Z,70.10
2018-02-14T01:50:14.626Z,70.30
2018-02-14T01:52:42.102Z,70.10
2018-02-14T01:55:09.566Z,69.90
2018-02-14T01:57:37.047Z,70.30
2018-02-14T02:00:04.518Z,70.20
2018-02-14T02:02:31.973Z,70.20
2018-02-14T02:04:59.453Z,70.60
2018-02-14T02:07:27.687Z,69.90
2018-02-14T02:09:55.170Z,69.80
2018-02-14T02:12:22.702Z,69.70
2018-02-14T02:14:50.174Z,69.40
2018-02-14T02:17:17.649Z,69.30
2018-02-14T02:19:45.113Z,69.40
2018-02-14T02:22:13.352Z,70.30
2018-02-14T02:24:40.818Z,70.30
2018-02-14T02:27:08.317Z,70.00
2018-02-14T02:29:35.749Z,69.80
2018-02-14T02:32:03.228Z,69.40
2018-02-14T02:34:31.446Z,68.90
2018-02-14T02:36:58.926Z,68.90
2018-02-14T02:39:38.412Z,69.60
2018-02-14T02:42:05.892Z,70.50
2018-02-14T02:44:33.352Z,70.80
2018-02-14T02:47:00.831Z,71.00
2018-02-14T02:49:28.307Z,71.10
2018-02-14T02:51:55.765Z,70.70
2018-02-14T02:54:23.249Z,70.90
2018-02-14T02:56:50.717Z,71.10
2018-02-14T02:59:18.186Z,71.00
2018-02-14T03:01:45.642Z,71.20
2018-02-14T03:04:13.162Z,70.60
2018-02-14T03:06:41.393Z,70.70
2018-02-14T03:09:08.857Z,70.60
2018-02-14T03:11:36.335Z,70.40
2018-02-14T03:14:03.802Z,70.40
2018-02-14T03:16:31.269Z,70.00
2018-02-14T03:18:59.501Z,69.50
2018-02-14T03:21:26.970Z,69.40
2018-02-14T03:23:54.446Z,69.30
2018-02-14T03:26:21.912Z,69.60
2018-02-14T03:28:50.130Z,69.90
2018-02-14T03:31:17.602Z,69.90
2018-02-14T03:33:45.062Z,69.50
2018-02-14T03:36:12.537Z,69.50
2018-02-14T03:38:40.016Z,69.00
2018-02-14T03:41:08.237Z,68.70
2018-02-14T03:43:35.714Z,68.70
2018-02-14T03:46:03.449Z,68.70
2018-02-14T03:48:30.918Z,68.70
2018-02-14T03:50:58.372Z,69.20
2018-02-14T03:53:25.839Z,69.40
2018-02-14T03:55:53.305Z,69.50
2018-02-14T03:58:20.774Z,70.00
2018-02-14T04:00:48.245Z,70.20
2018-02-14T04:03:15.706Z,70.00
2018-02-14T04:05:43.184Z,69.40
2018-02-14T04:08:10.642Z,69.30
2018-02-14T04:10:38.114Z,68.90
2018-02-14T04:13:05.890Z,69.20
2018-02-14T04:15:33.353Z,69.20
2018-02-14T04:18:00.810Z,69.10
2018-02-14T04:20:28.274Z,69.30
2018-02-14T04:22:55.739Z,69.20
2018-02-14T04:25:23.208Z,68.30
2018-02-14T04:27:50.675Z,68.10
2018-02-14T04:30:35.842Z,69.20
2018-02-14T04:33:03.297Z,69.60
2018-02-14T04:35:30.769Z,68.70
2018-02-14T04:37:58.233Z,68.80
2018-02-14T04:40:26.466Z,68.90
2018-02-14T04:42:53.942Z,68.20
2018-02-14T04:45:21.401Z,68.20
2018-02-14T04:47:48.874Z,68.40
2018-02-14T04:50:16.333Z,68.20
2018-02-14T04:52:43.802Z,67.60
2018-02-14T04:55:11.270Z,68.70
2018-02-14T04:57:39.497Z,67.80
2018-02-14T05:00:06.974Z,67.80
2018-02-14T05:02:34.452Z,68.20
2018-02-14T05:05:02.684Z,67.70
2018-02-14T05:07:30.158Z,67.60
2018-02-14T05:09:57.623Z,68.00
2018-02-14T05:12:25.107Z,67.60
2018-02-14T05:14:52.556Z,66.60
2018-02-14T05:17:20.030Z,66.80
2018-02-14T05:19:47.485Z,66.90
2018-02-14T05:22:14.960Z,66.80
2018-02-14T05:24:42.421Z,67.10
2018-02-14T05:27:09.902Z,67.60
2018-02-14T05:29:37.370Z,67.50
2018-02-14T05:32:04.830Z,67.50
2018-02-14T05:34:32.298Z,67.20
2018-02-14T05:37:00.535Z,66.40
2018-02-14T05:39:27.997Z,66.40
2018-02-14T05:41:55.462Z,67.30
2018-02-14T05:44:22.933Z,67.30
2018-02-14T05:46:50.405Z,67.00
2018-02-14T05:49:18.668Z,66.50
2018-02-14T05:51:46.130Z,66.50
2018-02-14T05:54:13.604Z,67.40
2018-02-14T05:56:41.834Z,67.10
2018-02-14T05:59:09.305Z,67.00
2018-02-14T06:01:36.764Z,67.10
2018-02-14T06:04:04.241Z,68.00
2018-02-14T06:06:31.698Z,67.00
2018-02-14T06:08:59.161Z,67.80
2018-02-14T06:11:26.623Z,67.40
2018-02-14T06:13:54.860Z,67.40
2018-02-14T06:16:22.321Z,67.30
2018-02-14T06:18:49.793Z,67.20
2018-02-14T06:21:17.280Z,66.70
2018-02-14T06:23:46.426Z,66.70
2018-02-14T06:26:13.904Z,66.70
2018-02-14T06:28:41.375Z,66.70
2018-02-14T06:31:09.609Z,66.90
2018-02-14T06:33:37.102Z,66.10
2018-02-14T06:36:04.574Z,66.10
2018-02-14T06:38:32.806Z,66.50
2018-02-14T06:41:00.355Z,66.40
2018-02-14T06:43:27.827Z,66.60
2018-02-14T06:45:55.293Z,66.60
2018-02-14T06:48:22.762Z,66.20
2018-02-14T06:50:50.221Z,66.50
2018-02-14T06:53:17.685Z,66.40
2018-02-14T06:55:45.930Z,66.50
2018-02-14T06:58:13.386Z,66.30
2018-02-14T07:00:41.121Z,66.60
2018-02-14T07:03:08.582Z,66.40
2018-02-14T07:05:36.050Z,65.90
2018-02-14T07:08:03.512Z,65.70
2018-02-14T07:10:30.994Z,65.60
2018-02-14T07:12:58.466Z,65.10
2018-02-14T07:15:26.697Z,65.80
2018-02-14T07:17:54.162Z,65.70
2018-02-14T07:20:21.636Z,65.70
2018-02-14T07:22:49.111Z,65.70
2018-02-14T07:25:17.342Z,65.50
2018-02-14T07:27:44.823Z,65.50
2018-02-14T07:30:12.286Z,65.30
2018-02-14T07:32:39.746Z,65.70
2018-02-14T07:35:07.219Z,65.00
2018-02-14T07:37:35.437Z,64.60
2018-02-14T07:40:02.906Z,65.30
2018-02-14T07:42:30.382Z,64.50
2018-02-14T07:44:57.833Z,65.40
2018-02-14T07:47:25.294Z,65.50
2018-02-14T07:49:52.761Z,65.10
2018-02-14T07:52:20.213Z,65.00
2018-02-14T07:54:47.677Z,65.10
2018-02-14T07:57:15.150Z,64.50
2018-02-14T07:59:43.369Z,65.00
2018-02-14T08:02:10.845Z,65.00
2018-02-14T08:04:38.310Z,65.10
2018-02-14T08:07:05.767Z,64.60
2018-02-14T08:09:33.227Z,63.90
2018-02-14T08:12:00.689Z,64.20
2018-02-14T08:14:28.146Z,64.10
2018-02-14T08:16:55.602Z,64.60
2018-02-14T08:19:23.079Z,64.40
2018-02-14T08:21:50.532Z,64.00
2018-02-14T08:24:17.995Z,63.90
2018-02-14T08:26:46.621Z,64.40
2018-02-14T08:29:14.082Z,64.40
2018-02-14T08:31:41.550Z,63.10
2018-02-14T08:34:09.001Z,63.50
2018-02-14T08:36:36.466Z,64.10
2018-02-14T08:39:03.923Z,62.70
2018-02-14T08:41:31.386Z,63.00
2018-02-14T08:43:58.840Z,63.70
2018-02-14T08:46:26.305Z,64.00
2018-02-14T08:48:53.769Z,63.90
2018-02-14T08:51:21.237Z,63.40
2018-02-14T08:53:48.707Z,63.20
2018-02-14T08:56:16.174Z,62.30
2018-02-14T08:58:44.416Z,62.50
2018-02-14T09:01:11.874Z,62.60
2018-02-14T09:03:39.337Z,62.60
2018-02-14T09:06:06.796Z,63.00
2018-02-14T09:08:34.257Z,63.00
2018-02-14T09:11:01.715Z,62.50
2018-02-14T09:13:29.191Z,60.70
2018-02-14T09:15:57.406Z,61.30
2018-02-14T09:18:24.872Z,61.30
2018-02-14T09:20:52.349Z,61.20
2018-02-14T09:23:19.805Z,59.90
2018-02-14T09:25:47.274Z,59.10
2018-02-14T09:28:14.746Z,59.80
2018-02-14T09:30:42.977Z,59.50
2018-02-14T09:33:11.210Z,58.90
2018-02-14T09:35:39.440Z,58.30
2018-02-14T09:38:06.917Z,58.30
2018-02-14T09:40:34.625Z,58.30
2018-02-14T09:43:02.089Z,57.40
2018-02-14T09:45:29.561Z,58.00
2018-02-14T09:47:57.025Z,57.70
2018-02-14T09:50:24.477Z,56.50
2018-02-14T09:52:51.943Z,56.00
2018-02-14T09:55:19.405Z,56.50
2018-02-14T09:57:46.966Z,56.90
2018-02-14T10:00:14.450Z,57.10
2018-02-14T10:02:42.673Z,56.10
2018-02-14T10:05:10.170Z,56.00
2018-02-14T10:07:37.642Z,56.10
2018-02-14T10:10:05.862Z,56.10
2018-02-14T10:12:33.321Z,56.00
2018-02-14T10:15:00.783Z,54.70
2018-02-14T10:17:28.245Z,53.20
2018-02-14T10:19:55.708Z,53.20
2018-02-14T10:22:23.180Z,53.70
2018-02-14T10:24:50.643Z,53.20
2018-02-14T10:27:18.093Z,52.90
2018-02-14T10:29:45.558Z,53.40
2018-02-14T10:32:13.006Z,53.60
2018-02-14T10:34:40.475Z,53.70
2018-02-14T10:37:07.924Z,53.50
2018-02-14T10:39:35.394Z,54.10
2018-02-14T10:42:03.622Z,54.80
2018-02-14T10:44:31.074Z,54.20
2018-02-14T10:46:58.546Z,53.40
2018-02-14T10:49:26.042Z,52.30
2018-02-14T10:51:53.471Z,51.70
2018-02-14T10:54:20.925Z,51.90
2018-02-14T10:56:48.402Z,52.70
2018-02-14T10:59:16.643Z,52.50
2018-02-14T11:01:49.734Z,52.40
2018-02-14T11:04:22.231Z,52.00
2018-02-14T11:06:49.686Z,51.70
2018-02-14T11:09:17.152Z,51.10
2018-02-14T11:11:44.610Z,51.10
2018-02-14T11:14:12.074Z,50.40
2018-02-14T11:16:39.535Z,49.30
2018-02-14T11:19:07.765Z,49.20
2018-02-14T11:21:35.224Z,49.00
2018-02-14T11:24:02.714Z,49.20
2018-02-14T11:26:30.946Z,49.90
2018-02-14T11:28:58.406Z,49.80
2018-02-14T11:31:25.869Z,49.30
2018-02-14T11:33:53.323Z,49.20
2018-02-14T11:36:20.801Z,49.70
2018-02-14T11:38:48.250Z,50.00
2018-02-14T11:41:15.727Z,49.70
2018-02-14T11:43:43.182Z,49.80
2018-02-14T11:46:10.655Z,49.40
2018-02-14T11:48:38.889Z,51.10
2018-02-14T11:51:07.130Z,50.70
2018-02-14T11:53:34.585Z,50.70
2018-02-14T11:56:02.043Z,50.50
2018-02-14T11:58:29.504Z,50.50
2018-02-14T12:00:56.962Z,50.80
2018-02-14T12:03:24.738Z,50.30
2018-02-14T12:05:52.192Z,50.50
2018-02-14T12:08:19.654Z,50.50
2018-02-14T12:10:47.118Z,50.60
2018-02-14T12:13:14.598Z,51.00
2018-02-14T12:15:42.062Z,51.20
2018-02-14T12:18:09.515Z,50.80
2018-02-14T12:20:36.975Z,51.00
2018-02-14T12:23:04.426Z,51.50
2018-02-14T12:25:31.882Z,50.60
2018-02-14T12:27:59.342Z,50.30
2018-02-14T12:30:26.843Z,50.40
2018-02-14T12:32:54.278Z,50.10
2018-02-14T12:35:21.729Z,50.50
2018-02-14T12:37:49.177Z,50.00
2018-02-14T12:40:16.639Z,50.00
2018-02-14T12:42:44.102Z,50.20
2018-02-14T12:45:11.558Z,50.70
2018-02-14T12:47:39.017Z,49.70
2018-02-14T12:50:06.470Z,49.50
2018-02-14T12:52:33.936Z,49.60
2018-02-14T12:55:01.406Z,50.20
2018-02-14T12:57:29.626Z,50.10
2018-02-14T12:59:57.089Z,50.00
2018-02-14T13:02:24.547Z,49.70
2018-02-14T13:04:52.782Z,50.40
2018-02-14T13:07:20.229Z,50.30
2018-02-14T13:09:47.689Z,50.90
2018-02-14T13:12:15.913Z,51.70
2018-02-14T13:14:43.372Z,51.70
2018-02-14T13:17:10.862Z,52.10
2018-02-14T13:19:38.321Z,52.40
2018-02-14T13:22:05.777Z,52.10
2018-02-14T13:24:34.006Z,52.00
2018-02-14T13:27:01.479Z,52.00
2018-02-14T13:29:28.935Z,51.60
2018-02-14T13:31:56.418Z,51.70
2018-02-14T13:34:23.871Z,51.80
2018-02-14T13:36:51.329Z,51.70
2018-02-14T13:39:18.790Z,52.00
2018-02-14T13:41:46.243Z,52.60
2018-02-14T13:44:13.701Z,53.60
2018-02-14T13:46:41.154Z,53.00
2018-02-14T13:49:08.612Z,53.30
2018-02-14T13:51:36.073Z,53.10
2018-02-14T13:54:03.535Z,53.40
2018-02-14T13:56:31.002Z,53.60
2018-02-14T13:58:59.233Z,53.50
2018-02-14T14:01:26.713Z,53.40
2018-02-14T14:03:54.175Z,54.00
2018-02-14T14:06:21.638Z,53.80
2018-02-14T14:08:49.875Z,54.40
2018-02-14T14:11:17.337Z,54.30
2018-02-14T14:13:44.807Z,53.80
2018-02-14T14:16:12.270Z,53.70
2018-02-14T14:18:39.735Z,54.00
2018-02-14T14:21:07.192Z,54.30
2018-02-14T14:23:34.653Z,54.70
2018-02-14T14:26:02.114Z,54.60
2018-02-14T14:28:29.586Z,55.00
2018-02-14T14:30:57.814Z,55.40
2018-02-14T14:33:25.279Z,55.40
2018-02-14T14:35:52.746Z,55.30
2018-02-14T14:38:20.201Z,55.40
2018-02-14T14:40:47.674Z,55.60
2018-02-14T14:43:15.129Z,55.60
2018-02-14T14:45:42.594Z,55.40
2018-02-14T14:48:10.822Z,56.20
2018-02-14T14:50:38.290Z,56.20
2018-02-14T14:53:05.755Z,55.50
2018-02-14T14:55:33.209Z,55.50
2018-02-14T14:58:00.680Z,55.20
2018-02-14T15:00:28.148Z,55.10
2018-02-14T15:02:55.623Z,55.70
2018-02-14T15:05:23.846Z,56.20
2018-02-14T15:07:51.310Z,56.20
2018-02-14T15:10:18.783Z,56.20
2018-02-14T15:12:46.254Z,56.00
2018-02-14T15:15:14.482Z,56.00
2018-02-14T15:17:41.942Z,56.00
2018-02-14T15:20:09.408Z,56.10
2018-02-14T15:22:36.890Z,55.70
2018-02-14T15:25:04.360Z,55.60
2018-02-14T15:27:31.823Z,55.80
2018-02-14T15:30:00.072Z,56.10
2018-02-14T15:32:27.628Z,56.10
2018-02-14T15:35:03.017Z,56.10
2018-02-14T15:37:30.585Z,56.20
2018-02-14T15:39:58.108Z,55.80
2018-02-14T15:42:26.367Z,55.40
2018-02-14T15:44:53.830Z,55.30
2018-02-14T15:47:21.317Z,55.20
2018-02-14T15:49:49.586Z,55.40
2018-02-14T15:52:17.892Z,55.60
2018-02-14T15:54:45.361Z,56.70
2018-02-14T15:57:12.861Z,57.50
2018-02-14T15:59:40.325Z,57.80
2018-02-14T16:02:08.656Z,58.60
2018-02-14T16:04:36.121Z,58.60
2018-02-14T16:07:03.686Z,58.80
2018-02-14T16:09:31.922Z,58.50
2018-02-14T16:11:59.393Z,58.40
2018-02-14T16:14:26.874Z,58.70
2018-02-14T16:16:56.759Z,58.90
2018-02-14T16:19:24.879Z,60.10
2018-02-14T16:21:53.160Z,59.30
2018-02-14T16:24:20.654Z,59.20
2018-02-14T16:26:48.123Z,59.40
2018-02-14T16:29:15.592Z,59.70
2018-02-14T16:31:43.150Z,59.80
2018-02-14T16:34:10.622Z,60.00
2018-02-14T16:36:38.078Z,60.00
2018-02-14T16:39:05.541Z,60.10
2018-02-14T16:41:33.009Z,60.50
2018-02-14T16:44:02.994Z,60.70
2018-02-14T16:46:30.480Z,61.00
2018-02-14T16:48:58.098Z,61.20
2018-02-14T16:51:25.586Z,61.40
2018-02-14T16:53:53.062Z,61.40
2018-02-14T16:56:20.741Z,61.30
2018-02-14T16:58:49.012Z,61.10
2018-02-14T17:01:16.628Z,61.10
2018-02-14T17:03:44.123Z,62.00
2018-02-14T17:06:11.639Z,61.20
2018-02-14T17:08:39.097Z,61.40
2018-02-14T17:11:06.574Z,61.60
2018-02-14T17:13:34.038Z,62.30
2018-02-14T17:16:01.504Z,61.70
2018-02-14T17:18:29.044Z,62.00
2018-02-14T17:20:56.525Z,61.70
2018-02-14T17:23:24.001Z,61.70
2018-02-14T17:25:51.463Z,61.80
2018-02-14T17:28:19.696Z,62.90
2018-02-14T17:30:47.167Z,62.20
2018-02-14T17:33:14.622Z,62.10
2018-02-14T17:35:42.666Z,62.20
2018-02-14T17:38:10.170Z,62.80
2018-02-14T17:40:37.638Z,62.60
2018-02-14T17:43:05.867Z,62.90
2018-02-14T17:45:33.338Z,62.90
2018-02-14T17:48:00.810Z,62.90
2018-02-14T17:50:28.296Z,63.20
2018-02-14T17:52:56.534Z,63.20
2018-02-14T17:55:23.993Z,63.30
2018-02-14T17:57:51.465Z,63.20
2018-02-14T18:00:19.706Z,62.70
2018-02-14T18:02:47.178Z,63.30
2018-02-14T18:05:14.647Z,63.30
2018-02-14T18:07:42.108Z,63.20
2018-02-14T18:10:09.840Z,63.20
2018-02-14T18:12:37.358Z,63.40
2018-02-14T18:15:05.611Z,63.30
2018-02-14T18:17:33.860Z,63.70
2018-02-14T18:20:02.150Z,64.00
2018-02-14T18:22:29.631Z,63.70
2018-02-14T18:24:57.099Z,63.90
2018-02-14T18:27:24.600Z,63.90
2018-02-14T18:29:52.070Z,64.00
2018-02-14T18:32:19.546Z,63.90
2018-02-14T18:34:49.005Z,64.20
2018-02-14T18:37:16.493Z,64.20
2018-02-14T18:39:43.973Z,63.40
2018-02-14T18:42:11.720Z,63.60
2018-02-14T18:44:39.941Z,63.60
2018-02-14T18:47:08.159Z,63.80
2018-02-14T18:49:37.355Z,64.30
2018-02-14T18:52:05.612Z,64.50
2018-02-14T18:54:35.306Z,64.60
2018-02-14T18:57:05.819Z,64.60
2018-02-14T18:59:34.165Z,65.10
2018-02-14T19:02:06.076Z,65.20
2018-02-14T19:04:33.589Z,64.40
2018-02-14T19:07:01.078Z,63.90
2018-02-14T19:09:28.824Z,64.10
2018-02-14T19:11:57.428Z,64.50
2018-02-14T19:14:24.928Z,64.60
2018-02-14T19:16:53.224Z,64.40
2018-02-14T19:19:20.715Z,64.40
2018-02-14T19:21:48.215Z,64.40
2018-02-14T19:24:15.698Z,64.40
2018-02-14T19:26:44.114Z,64.10
2018-02-14T19:29:11.686Z,64.20
2018-02-14T19:31:39.477Z,64.20
2018-02-14T19:34:06.966Z,64.50
2018-02-14T19:36:34.514Z,64.30
2018-02-14T19:39:02.879Z,64.10
2018-02-14T19:41:30.388Z,64.00
2018-02-14T19:43:58.719Z,64.10
2018-02-14T19:46:26.239Z,64.00
2018-02-14T19:48:53.746Z,64.10
2018-02-14T19:51:22.307Z,64.40
2018-02-14T19:53:50.834Z,64.50
2018-02-14T19:56:18.363Z,64.50
2018-02-14T19:58:46.712Z,64.90
2018-02-14T20:01:14.204Z,64.80
2018-02-14T20:03:43.815Z,65.00
2018-02-14T20:06:11.351Z,65.30
2018-02-14T20:08:39.636Z,65.10
2018-02-14T20:11:07.108Z,65.40
2018-02-14T20:13:34.631Z,66.00
2018-02-14T20:16:10.502Z,66.50
2018-02-14T20:18:38.808Z,67.30
2018-02-14T20:21:07.136Z,67.00
2018-02-14T20:23:35.378Z,66.70
2018-02-14T20:26:03.610Z,66.70
2018-02-14T20:28:31.105Z,66.70
2018-02-14T20:30:58.974Z,66.50
2018-02-14T20:33:26.463Z,66.30
2018-02-14T20:35:54.010Z,65.90
2018-02-14T20:38:21.548Z,66.20
2018-02-14T20:40:49.814Z,66.20
2018-02-14T20:43:18.041Z,66.30
2018-02-14T20:45:45.535Z,66.30
2018-02-14T20:48:13.085Z,66.50
2018-02-14T20:50:44.522Z,66.40
2018-02-14T20:53:12.049Z,66.40
2018-02-14T20:55:39.586Z,66.40
2018-02-14T20:58:07.092Z,66.50
2018-02-14T21:00:34.563Z,66.50
2018-02-14T21:03:02.393Z,66.70
2018-02-14T21:05:31.280Z,66.80
2018-02-14T21:07:58.902Z,67.30
2018-02-14T21:10:30.298Z,67.10
2018-02-14T21:12:57.781Z,67.10
2018-02-14T21:15:25.958Z,67.10
2018-02-14T21:17:53.390Z,67.30
2018-02-14T21:20:20.877Z,67.30
2018-02-14T21:22:49.179Z,67.20
2018-02-14T21:25:17.459Z,67.20
2018-02-14T21:27:45.748Z,67.10
2018-02-14T21:30:14.212Z,67.10
2018-02-14T21:32:42.784Z,67.10
2018-02-14T21:35:11.925Z,67.10
2018-02-14T21:37:39.421Z,67.00
2018-02-14T21:40:07.745Z,67.50
2018-02-14T21:42:36.118Z,67.40
2018-02-14T21:45:04.911Z,67.80
2018-02-14T21:47:34.860Z,67.80
2018-02-14T21:50:03.687Z,67.80
2018-02-14T21:52:32.115Z,67.40
2018-02-14T21:54:59.703Z,67.40
2018-02-14T21:57:27.827Z,67.90
2018-02-14T21:59:55.300Z,67.90
2018-02-14T22:02:23.546Z,67.80
2018-02-14T22:04:51.819Z,67.60
2018-02-14T22:07:20.047Z,67.70
2018-02-14T22:09:47.518Z,67.70
2018-02-14T22:12:14.978Z,67.60
2018-02-14T22:14:42.458Z,67.80
2018-02-14T22:17:10.697Z,68.10
2018-02-14T22:19:38.158Z,68.10
2018-02-14T22:22:05.623Z,67.80
2018-02-14T22:24:33.093Z,67.90
2018-02-14T22:27:00.553Z,67.90
2018-02-14T22:29:28.034Z,67.60
2018-02-14T22:31:56.279Z,67.90
2018-02-14T22:34:23.733Z,67.90
2018-02-14T22:36:51.212Z,68.00
2018-02-14T22:39:18.669Z,68.00
2018-02-14T22:41:46.918Z,68.30
2018-02-14T22:44:14.399Z,68.20
2018-02-14T22:46:42.629Z,68.30
2018-02-14T22:49:10.110Z,68.20
2018-02-14T22:51:37.587Z,67.80
2018-02-14T22:54:05.058Z,67.80
2018-02-14T22:56:33.298Z,67.60
2018-02-14T22:59:00.781Z,67.60
2018-02-14T23:01:28.246Z,67.50
2018-02-14T23:03:56.486Z,67.60
2018-02-14T23:06:23.970Z,67.50
2018-02-14T23:08:51.425Z,67.70
2018-02-14T23:11:18.945Z,67.40
2018-02-14T23:13:46.414Z,67.70
2018-02-14T23:16:13.878Z,67.60
2018-02-14T23:18:41.330Z,67.10
2018-02-14T23:21:08.799Z,67.20
2018-02-14T23:23:36.265Z,67.50
2018-02-14T23:26:03.735Z,67.90
2018-02-14T23:28:31.989Z,67.90
2018-02-14T23:30:59.445Z,68.00
2018-02-14T23:33:26.926Z,68.00
2018-02-14T23:35:55.157Z,67.60
2018-02-14T23:38:22.686Z,67.60
2018-02-14T23:40:50.156Z,67.50
2018-02-14T23:43:17.606Z,67.10
2018-02-14T23:45:45.086Z,67.00
2018-02-14T23:48:12.553Z,67.10
2018-02-14T23:50:40.015Z,67.60
2018-02-14T23:53:07.517Z,67.80
2018-02-14T23:55:34.992Z,67.30
2018-02-14T23:58:02.462Z,66.90
